sensor_id;sensor_type;location;lat;lon;timestamp;pressure;altitude;pressure_sealevel;temperature;humidity
1616;BME280;801;47.982;7.810;2022-07-29T02:32:10;98386.50;;;20.13;100.00
1616;BME280;801;47.982;7.810;2022-07-29T02:34:39;98388.72;;;20.19;100.00
1616;BME280;801;47.982;7.810;2022-07-29T02:37:09;98380.38;;;20.16;100.00
1616;BME280;801;47.982;7.810;2022-07-29T02:39:37;98375.31;;;20.05;100.00
1616;BME280;801;47.982;7.810;2022-07-29T02:42:07;98377.28;;;19.96;100.00
1616;BME280;801;47.982;7.810;2022-07-29T02:44:34;98384.34;;;19.97;100.00
1616;BME280;801;47.982;7.810;2022-07-29T02:47:04;98379.50;;;20.03;100.00
1616;BME280;801;47.982;7.810;2022-07-29T02:49:37;98382.25;;;20.03;100.00
1616;BME280;801;47.982;7.810;2022-07-29T02:52:08;98386.06;;;20.02;100.00
1616;BME280;801;47.982;7.810;2022-07-29T02:54:41;98383.84;;;19.95;100.00
1616;BME280;801;47.982;7.810;2022-07-29T02:57:12;98379.53;;;19.94;100.00
1616;BME280;801;47.982;7.810;2022-07-29T02:59:42;98380.19;;;19.91;100.00
1616;BME280;801;47.982;7.810;2022-07-29T03:02:11;98375.19;;;19.93;100.00
1616;BME280;801;47.982;7.810;2022-07-29T03:04:42;98382.25;;;20.03;100.00
1616;BME280;801;47.982;7.810;2022-07-29T03:07:10;98379.50;;;20.03;100.00
1616;BME280;801;47.982;7.810;2022-07-29T03:09:38;98379.19;;;19.96;100.00
1616;BME280;801;47.982;7.810;2022-07-29T03:12:05;98375.03;;;19.98;100.00
1616;BME280;801;47.982;7.810;2022-07-29T03:14:32;98372.19;;;19.86;100.00
1616;BME280;801;47.982;7.810;2022-07-29T03:17:00;98375.09;;;19.81;100.00
1616;BME280;801;47.982;7.810;2022-07-29T03:19:27;98370.28;;;19.78;100.00
1616;BME280;801;47.982;7.810;2022-07-29T03:21:56;98370.28;;;19.78;100.00
1616;BME280;801;47.982;7.810;2022-07-29T03:24:29;98369.19;;;19.61;100.00
1616;BME280;801;47.982;7.810;2022-07-29T03:26:56;98375.13;;;19.63;100.00
1616;BME280;801;47.982;7.810;2022-07-29T03:29:23;98371.13;;;19.61;100.00
1616;BME280;801;47.982;7.810;2022-07-29T03:31:50;98367.44;;;19.65;100.00
1616;BME280;801;47.982;7.810;2022-07-29T03:34:17;98368.53;;;19.64;100.00
1616;BME280;801;47.982;7.810;2022-07-29T03:36:43;98373.84;;;19.69;100.00
1616;BME280;801;47.982;7.810;2022-07-29T03:39:13;98374.47;;;19.66;100.00
1616;BME280;801;47.982;7.810;2022-07-29T03:41:42;98366.66;;;19.56;100.00
1616;BME280;801;47.982;7.810;2022-07-29T03:44:10;98377.88;;;19.55;100.00
1616;BME280;801;47.982;7.810;2022-07-29T03:46:39;98374.47;;;19.58;100.00
1616;BME280;801;47.982;7.810;2022-07-29T03:49:06;98388.75;;;19.55;100.00
1616;BME280;801;47.982;7.810;2022-07-29T03:51:34;98383.81;;;19.48;100.00
1616;BME280;801;47.982;7.810;2022-07-29T03:54:02;98377.75;;;19.42;100.00
1616;BME280;801;47.982;7.810;2022-07-29T03:56:32;98382.72;;;19.32;100.00
1616;BME280;801;47.982;7.810;2022-07-29T03:59:01;98379.03;;;19.27;100.00
1616;BME280;801;47.982;7.810;2022-07-29T04:01:29;98375.69;;;19.13;100.00
1616;BME280;801;47.982;7.810;2022-07-29T04:03:56;98379.53;;;19.12;100.00
1616;BME280;801;47.982;7.810;2022-07-29T04:06:22;98378.88;;;19.06;100.00
1616;BME280;801;47.982;7.810;2022-07-29T04:08:50;98379.06;;;19.10;100.00
1616;BME280;801;47.982;7.810;2022-07-29T04:11:17;98384.50;;;19.10;100.00
1616;BME280;801;47.982;7.810;2022-07-29T04:13:45;98383.41;;;19.11;100.00
1616;BME280;801;47.982;7.810;2022-07-29T04:16:11;98383.72;;;19.10;100.00
1616;BME280;801;47.982;7.810;2022-07-29T04:18:38;98381.47;;;19.12;100.00
1616;BME280;801;47.982;7.810;2022-07-29T04:21:04;98390.44;;;19.12;100.00
1616;BME280;801;47.982;7.810;2022-07-29T04:23:31;98388.34;;;19.18;100.00
1616;BME280;801;47.982;7.810;2022-07-29T04:25:58;98393.16;;;19.21;100.00
1616;BME280;801;47.982;7.810;2022-07-29T04:28:26;98398.28;;;19.22;100.00
1616;BME280;801;47.982;7.810;2022-07-29T04:30:54;98397.94;;;19.15;100.00
1616;BME280;801;47.982;7.810;2022-07-29T04:33:20;98394.59;;;19.18;100.00
1616;BME280;801;47.982;7.810;2022-07-29T04:35:47;98398.59;;;19.29;100.00
1616;BME280;801;47.982;7.810;2022-07-29T04:38:13;98401.81;;;19.14;100.00
1616;BME280;801;47.982;7.810;2022-07-29T04:40:40;98403.25;;;19.29;100.00
1616;BME280;801;47.982;7.810;2022-07-29T04:43:06;98397.94;;;19.33;100.00
1616;BME280;801;47.982;7.810;2022-07-29T04:45:32;98408.34;;;19.39;100.00
1616;BME280;801;47.982;7.810;2022-07-29T04:48:00;98407.72;;;19.42;100.00
1616;BME280;801;47.982;7.810;2022-07-29T04:50:27;98410.75;;;19.41;100.00
1616;BME280;801;47.982;7.810;2022-07-29T04:52:53;98413.47;;;19.49;100.00
1616;BME280;801;47.982;7.810;2022-07-29T04:55:20;98405.63;;;19.48;100.00
1616;BME280;801;47.982;7.810;2022-07-29T04:57:46;98408.34;;;19.48;100.00
1616;BME280;801;47.982;7.810;2022-07-29T05:00:13;98411.72;;;19.54;100.00
1616;BME280;801;47.982;7.810;2022-07-29T05:02:40;98418.56;;;19.60;100.00
1616;BME280;801;47.982;7.810;2022-07-29T05:05:08;98420.97;;;19.61;100.00
1616;BME280;801;47.982;7.810;2022-07-29T05:07:35;98419.72;;;19.50;100.00
1616;BME280;801;47.982;7.810;2022-07-29T05:10:01;98414.28;;;19.50;100.00
1616;BME280;801;47.982;7.810;2022-07-29T05:12:28;98424.88;;;19.43;100.00
1616;BME280;801;47.982;7.810;2022-07-29T05:14:54;98415.53;;;19.53;100.00
1616;BME280;801;47.982;7.810;2022-07-29T05:17:21;98426.28;;;19.49;100.00
1616;BME280;801;47.982;7.810;2022-07-29T05:19:47;98431.88;;;19.61;100.00
1616;BME280;801;47.982;7.810;2022-07-29T05:22:18;98428.19;;;19.66;100.00
1616;BME280;801;47.982;7.810;2022-07-29T05:24:44;98444.06;;;19.64;100.00
1616;BME280;801;47.982;7.810;2022-07-29T05:27:11;98441.19;;;19.69;100.00
1616;BME280;801;47.982;7.810;2022-07-29T05:29:37;98450.47;;;19.77;100.00
1616;BME280;801;47.982;7.810;2022-07-29T05:32:04;98448.38;;;19.82;100.00
1616;BME280;801;47.982;7.810;2022-07-29T05:34:31;98454.75;;;19.95;100.00
1616;BME280;801;47.982;7.810;2022-07-29T05:36:57;98454.66;;;19.83;100.00
1616;BME280;801;47.982;7.810;2022-07-29T05:39:25;98453.81;;;19.82;100.00
1616;BME280;801;47.982;7.810;2022-07-29T05:41:52;98463.72;;;19.96;100.00
1616;BME280;801;47.982;7.810;2022-07-29T05:44:18;98459.69;;;20.10;100.00
1616;BME280;801;47.982;7.810;2022-07-29T05:46:45;98454.06;;;20.07;100.00
1616;BME280;801;47.982;7.810;2022-07-29T05:49:11;98456.94;;;20.19;100.00
1616;BME280;801;47.982;7.810;2022-07-29T05:51:38;98465.72;;;20.25;100.00
1616;BME280;801;47.982;7.810;2022-07-29T05:54:04;98464.59;;;20.26;100.00
1616;BME280;801;47.982;7.810;2022-07-29T05:56:32;98467.31;;;20.35;100.00
1616;BME280;801;47.982;7.810;2022-07-29T05:58:59;98474.81;;;20.38;100.00
1616;BME280;801;47.982;7.810;2022-07-29T06:01:25;98471.38;;;20.49;100.00
1616;BME280;801;47.982;7.810;2022-07-29T06:03:52;98473.94;;;20.55;100.00
1616;BME280;801;47.982;7.810;2022-07-29T06:06:18;98472.69;;;20.61;100.00
1616;BME280;801;47.982;7.810;2022-07-29T06:08:45;98472.94;;;20.68;100.00
1616;BME280;801;47.982;7.810;2022-07-29T06:11:11;98481.00;;;20.64;100.00
1616;BME280;801;47.982;7.810;2022-07-29T06:13:40;98481.13;;;20.68;100.00
1616;BME280;801;47.982;7.810;2022-07-29T06:16:06;98492.56;;;20.91;100.00
1616;BME280;801;47.982;7.810;2022-07-29T06:18:33;98478.47;;;21.10;100.00
1616;BME280;801;47.982;7.810;2022-07-29T06:21:00;98479.00;;;21.24;100.00
1616;BME280;801;47.982;7.810;2022-07-29T06:23:26;98481.34;;;21.34;100.00
1616;BME280;801;47.982;7.810;2022-07-29T06:25:53;98488.72;;;21.34;100.00
1616;BME280;801;47.982;7.810;2022-07-29T06:28:19;98483.56;;;21.41;100.00
1616;BME280;801;47.982;7.810;2022-07-29T06:30:47;98487.34;;;21.49;100.00
1616;BME280;801;47.982;7.810;2022-07-29T06:33:16;98489.16;;;21.45;100.00
1616;BME280;801;47.982;7.810;2022-07-29T06:35:44;98488.59;;;21.51;100.00
1616;BME280;801;47.982;7.810;2022-07-29T06:38:12;98494.72;;;21.69;100.00
1616;BME280;801;47.982;7.810;2022-07-29T06:40:41;98486.47;;;21.57;100.00
1616;BME280;801;47.982;7.810;2022-07-29T06:43:26;98482.66;;;21.70;100.00
1616;BME280;801;47.982;7.810;2022-07-29T06:45:54;98487.56;;;21.77;100.00
1616;BME280;801;47.982;7.810;2022-07-29T06:48:21;98489.03;;;21.74;100.00
1616;BME280;801;47.982;7.810;2022-07-29T06:50:47;98488.84;;;21.80;100.00
1616;BME280;801;47.982;7.810;2022-07-29T06:53:14;98498.69;;;21.93;100.00
1616;BME280;801;47.982;7.810;2022-07-29T06:55:40;98492.81;;;21.82;100.00
1616;BME280;801;47.982;7.810;2022-07-29T06:58:07;98495.25;;;21.96;100.00
1616;BME280;801;47.982;7.810;2022-07-29T07:00:34;98509.44;;;22.10;100.00
1616;BME280;801;47.982;7.810;2022-07-29T07:03:02;98499.47;;;21.93;100.00
1616;BME280;801;47.982;7.810;2022-07-29T07:05:29;98508.44;;;21.82;100.00
1616;BME280;801;47.982;7.810;2022-07-29T07:07:55;98514.41;;;21.96;100.00
1616;BME280;801;47.982;7.810;2022-07-29T07:10:22;98525.81;;;21.98;100.00
1616;BME280;801;47.982;7.810;2022-07-29T07:12:48;98518.78;;;22.09;100.00
1616;BME280;801;47.982;7.810;2022-07-29T07:15:15;98525.41;;;22.08;100.00
1616;BME280;801;47.982;7.810;2022-07-29T07:17:41;98526.53;;;22.07;100.00
1616;BME280;801;47.982;7.810;2022-07-29T07:20:10;98515.34;;;22.00;100.00
1616;BME280;801;47.982;7.810;2022-07-29T07:22:36;98519.84;;;22.17;100.00
1616;BME280;801;47.982;7.810;2022-07-29T07:25:03;98528.88;;;22.30;100.00
1616;BME280;801;47.982;7.810;2022-07-29T07:27:30;98537.88;;;22.30;100.00
1616;BME280;801;47.982;7.810;2022-07-29T07:29:57;98534.94;;;22.35;100.00
1616;BME280;801;47.982;7.810;2022-07-29T07:32:23;98544.75;;;22.36;100.00
1616;BME280;801;47.982;7.810;2022-07-29T07:34:50;98548.75;;;22.39;100.00
1616;BME280;801;47.982;7.810;2022-07-29T07:37:18;98551.56;;;22.30;100.00
1616;BME280;801;47.982;7.810;2022-07-29T07:39:45;98557.19;;;22.34;100.00
1616;BME280;801;47.982;7.810;2022-07-29T07:42:12;98551.94;;;22.41;100.00
1616;BME280;801;47.982;7.810;2022-07-29T07:44:38;98554.25;;;22.51;100.00
1616;BME280;801;47.982;7.810;2022-07-29T07:47:05;98567.91;;;22.39;100.00
1616;BME280;801;47.982;7.810;2022-07-29T07:49:32;98548.75;;;22.39;100.00
1616;BME280;801;47.982;7.810;2022-07-29T07:51:58;98557.88;;;22.31;100.00
1616;BME280;801;47.982;7.810;2022-07-29T07:54:26;98559.69;;;22.39;100.00
1616;BME280;801;47.982;7.810;2022-07-29T07:56:52;98553.56;;;22.42;100.00
1616;BME280;801;47.982;7.810;2022-07-29T07:59:19;98551.38;;;22.48;100.00
1616;BME280;801;47.982;7.810;2022-07-29T08:01:45;98546.50;;;22.53;100.00
1616;BME280;801;47.982;7.810;2022-07-29T08:04:12;98550.81;;;22.54;100.00
1616;BME280;801;47.982;7.810;2022-07-29T08:06:38;98549.22;;;22.66;100.00
1616;BME280;801;47.982;7.810;2022-07-29T08:09:05;98560.06;;;22.74;100.00
1616;BME280;801;47.982;7.810;2022-07-29T08:11:33;98549.91;;;22.75;100.00
1616;BME280;801;47.982;7.810;2022-07-29T08:13:59;98550.47;;;22.93;100.00
1616;BME280;801;47.982;7.810;2022-07-29T08:16:26;98538.72;;;22.92;100.00
1616;BME280;801;47.982;7.810;2022-07-29T08:18:53;98537.41;;;23.11;100.00
1616;BME280;801;47.982;7.810;2022-07-29T08:21:23;98537.81;;;23.13;100.00
1616;BME280;801;47.982;7.810;2022-07-29T08:23:50;98550.16;;;23.19;100.00
1616;BME280;801;47.982;7.810;2022-07-29T08:26:18;98541.00;;;23.27;100.00
1616;BME280;801;47.982;7.810;2022-07-29T08:28:46;98538.47;;;23.34;100.00
1616;BME280;801;47.982;7.810;2022-07-29T08:31:15;98545.72;;;23.14;100.00
1616;BME280;801;47.982;7.810;2022-07-29T08:33:43;98542.13;;;23.38;100.00
1616;BME280;801;47.982;7.810;2022-07-29T08:36:09;98549.97;;;23.52;100.00
1616;BME280;801;47.982;7.810;2022-07-29T08:38:37;98545.34;;;23.81;100.00
1616;BME280;801;47.982;7.810;2022-07-29T08:41:04;98542.25;;;23.82;98.47
1616;BME280;801;47.982;7.810;2022-07-29T08:43:31;98542.91;;;23.92;96.72
1616;BME280;801;47.982;7.810;2022-07-29T08:46:01;98548.91;;;23.97;96.20
1616;BME280;801;47.982;7.810;2022-07-29T08:48:28;98548.19;;;23.85;97.20
1616;BME280;801;47.982;7.810;2022-07-29T08:50:56;98550.59;;;24.02;92.79
1616;BME280;801;47.982;7.810;2022-07-29T08:53:25;98552.59;;;24.17;91.49
1616;BME280;801;47.982;7.810;2022-07-29T08:55:53;98544.28;;;24.30;87.90
1616;BME280;801;47.982;7.810;2022-07-29T08:58:20;98548.31;;;24.48;84.75
1616;BME280;801;47.982;7.810;2022-07-29T09:00:51;98550.47;;;24.42;84.03
1616;BME280;801;47.982;7.810;2022-07-29T09:03:20;98551.38;;;24.31;85.43
1616;BME280;801;47.982;7.810;2022-07-29T09:05:48;98553.00;;;24.03;87.96
1616;BME280;801;47.982;7.810;2022-07-29T09:08:16;98541.88;;;24.28;86.41
1616;BME280;801;47.982;7.810;2022-07-29T09:10:43;98553.34;;;24.46;85.80
1616;BME280;801;47.982;7.810;2022-07-29T09:13:10;98543.75;;;24.40;82.22
1616;BME280;801;47.982;7.810;2022-07-29T09:15:37;98546.78;;;24.35;82.08
1616;BME280;801;47.982;7.810;2022-07-29T09:18:03;98551.19;;;24.23;82.53
1616;BME280;801;47.982;7.810;2022-07-29T09:20:31;98553.72;;;24.00;84.51
1616;BME280;801;47.982;7.810;2022-07-29T09:23:12;98554.97;;;24.03;85.25
1616;BME280;801;47.982;7.810;2022-07-29T09:25:41;98559.47;;;24.11;82.25
1616;BME280;801;47.982;7.810;2022-07-29T09:28:08;98554.84;;;23.99;81.08
1616;BME280;801;47.982;7.810;2022-07-29T09:30:35;98558.47;;;24.32;79.77
1616;BME280;801;47.982;7.810;2022-07-29T09:33:03;98558.97;;;24.21;80.58
1616;BME280;801;47.982;7.810;2022-07-29T09:35:31;98559.47;;;24.11;80.56
1616;BME280;801;47.982;7.810;2022-07-29T09:38:09;98558.72;;;24.27;81.29
1616;BME280;801;47.982;7.810;2022-07-29T09:40:36;98565.81;;;24.28;81.49
1616;BME280;801;47.982;7.810;2022-07-29T09:43:10;98560.13;;;24.20;81.56
1616;BME280;801;47.982;7.810;2022-07-29T09:45:37;98571.94;;;24.37;80.46
1616;BME280;801;47.982;7.810;2022-07-29T09:48:13;98573.16;;;24.23;79.99
1616;BME280;801;47.982;7.810;2022-07-29T09:50:43;98573.88;;;24.20;80.30
1616;BME280;801;47.982;7.810;2022-07-29T09:53:10;98569.97;;;24.21;81.56
1616;BME280;801;47.982;7.810;2022-07-29T09:55:47;98570.34;;;24.36;80.71
1616;BME280;801;47.982;7.810;2022-07-29T09:58:16;98567.84;;;24.31;80.44
1616;BME280;801;47.982;7.810;2022-07-29T10:00:44;98563.34;;;24.38;81.18
1616;BME280;801;47.982;7.810;2022-07-29T10:03:11;98562.22;;;24.55;80.65
1616;BME280;801;47.982;7.810;2022-07-29T10:05:38;98562.59;;;24.54;80.78
1616;BME280;801;47.982;7.810;2022-07-29T10:08:06;98565.28;;;24.38;81.81
1616;BME280;801;47.982;7.810;2022-07-29T10:10:35;98559.75;;;24.50;83.84
1616;BME280;801;47.982;7.810;2022-07-29T10:13:03;98558.41;;;24.60;83.53
1616;BME280;801;47.982;7.810;2022-07-29T10:15:32;98554.03;;;24.27;81.90
1616;BME280;801;47.982;7.810;2022-07-29T10:18:02;98550.84;;;24.41;80.78
1616;BME280;801;47.982;7.810;2022-07-29T10:20:28;98558.59;;;24.51;81.37
1616;BME280;801;47.982;7.810;2022-07-29T10:22:55;98550.59;;;24.78;80.14
1616;BME280;801;47.982;7.810;2022-07-29T10:25:25;98554.66;;;25.00;80.02
1616;BME280;801;47.982;7.810;2022-07-29T10:27:52;98552.19;;;24.95;80.44
1616;BME280;801;47.982;7.810;2022-07-29T10:30:21;98555.03;;;24.82;80.63
1616;BME280;801;47.982;7.810;2022-07-29T10:33:10;98550.72;;;24.65;81.53
1616;BME280;801;47.982;7.810;2022-07-29T10:35:51;98555.72;;;25.11;80.39
1616;BME280;801;47.982;7.810;2022-07-29T10:38:45;98560.06;;;25.12;77.99
1616;BME280;801;47.982;7.810;2022-07-29T10:41:39;98557.31;;;25.28;76.90
1616;BME280;801;47.982;7.810;2022-07-29T10:44:14;98561.00;;;25.36;77.04
1616;BME280;801;47.982;7.810;2022-07-29T10:46:42;98568.91;;;25.37;77.26
1616;BME280;801;47.982;7.810;2022-07-29T10:49:11;98565.56;;;25.28;75.93
1616;BME280;801;47.982;7.810;2022-07-29T10:51:58;98562.19;;;25.54;75.68
1616;BME280;801;47.982;7.810;2022-07-29T10:54:48;98554.59;;;25.67;75.56
1616;BME280;801;47.982;7.810;2022-07-29T10:57:20;98567.69;;;25.74;76.56
1616;BME280;801;47.982;7.810;2022-07-29T10:59:48;98572.13;;;25.78;75.41
1616;BME280;801;47.982;7.810;2022-07-29T11:02:40;98576.69;;;25.71;75.15
1616;BME280;801;47.982;7.810;2022-07-29T11:05:08;98570.59;;;25.61;74.74
1616;BME280;801;47.982;7.810;2022-07-29T11:07:36;98566.19;;;25.57;74.54
1616;BME280;801;47.982;7.810;2022-07-29T11:10:23;98568.47;;;25.35;73.25
1616;BME280;801;47.982;7.810;2022-07-29T11:12:51;98571.81;;;25.44;71.88
1616;BME280;801;47.982;7.810;2022-07-29T11:15:19;98565.16;;;25.45;72.13
1616;BME280;801;47.982;7.810;2022-07-29T11:18:06;98566.25;;;25.41;72.85
1616;BME280;801;47.982;7.810;2022-07-29T11:20:35;98572.44;;;25.38;74.69
1616;BME280;801;47.982;7.810;2022-07-29T11:23:17;98582.38;;;25.42;72.27
1616;BME280;801;47.982;7.810;2022-07-29T11:25:44;98581.31;;;25.31;73.72
1616;BME280;801;47.982;7.810;2022-07-29T11:28:16;98581.47;;;25.54;75.10
1616;BME280;801;47.982;7.810;2022-07-29T11:30:48;98577.63;;;25.59;74.45
1616;BME280;801;47.982;7.810;2022-07-29T11:33:27;98577.38;;;25.67;72.97
1616;BME280;801;47.982;7.810;2022-07-29T11:36:10;98566.47;;;25.71;73.74
1616;BME280;801;47.982;7.810;2022-07-29T11:38:37;98571.84;;;25.29;75.54
1616;BME280;801;47.982;7.810;2022-07-29T11:41:23;98564.69;;;25.24;75.38
1616;BME280;801;47.982;7.810;2022-07-29T11:43:52;98570.03;;;25.36;75.79
1616;BME280;801;47.982;7.810;2022-07-29T11:46:45;98569.00;;;25.60;74.34
1616;BME280;801;47.982;7.810;2022-07-29T11:49:13;98560.53;;;25.69;74.15
1616;BME280;801;47.982;7.810;2022-07-29T11:51:39;98579.38;;;25.32;75.93
1616;BME280;801;47.982;7.810;2022-07-29T11:54:10;98570.50;;;25.58;75.51
1616;BME280;801;47.982;7.810;2022-07-29T11:56:41;98576.91;;;25.26;76.17
1616;BME280;801;47.982;7.810;2022-07-29T11:59:11;98571.56;;;25.18;77.25
1616;BME280;801;47.982;7.810;2022-07-29T12:01:51;98573.53;;;25.33;77.23
1616;BME280;801;47.982;7.810;2022-07-29T12:04:18;98577.78;;;25.15;77.44
1616;BME280;801;47.982;7.810;2022-07-29T12:06:49;98581.63;;;25.26;75.99
1616;BME280;801;47.982;7.810;2022-07-29T12:09:15;98585.78;;;25.04;76.40
1616;BME280;801;47.982;7.810;2022-07-29T12:11:42;98585.69;;;25.16;77.90
1616;BME280;801;47.982;7.810;2022-07-29T12:14:24;98579.81;;;25.18;78.25
1616;BME280;801;47.982;7.810;2022-07-29T12:16:51;98573.53;;;25.33;78.82
1616;BME280;801;47.982;7.810;2022-07-29T12:19:17;98589.59;;;25.31;77.96
1616;BME280;801;47.982;7.810;2022-07-29T12:21:45;98581.09;;;25.56;77.67
1616;BME280;801;47.982;7.810;2022-07-29T12:24:11;98591.75;;;25.77;76.17
1616;BME280;801;47.982;7.810;2022-07-29T12:26:49;98593.22;;;25.35;78.80
1616;BME280;801;47.982;7.810;2022-07-29T12:29:18;98592.97;;;25.60;79.53
1616;BME280;801;47.982;7.810;2022-07-29T12:31:45;98596.00;;;25.55;79.54
1616;BME280;801;47.982;7.810;2022-07-29T12:34:12;98591.09;;;25.64;78.32
1616;BME280;801;47.982;7.810;2022-07-29T12:36:40;98588.88;;;25.89;77.53
1616;BME280;801;47.982;7.810;2022-07-29T12:39:07;98589.47;;;25.63;77.21
1616;BME280;801;47.982;7.810;2022-07-29T12:41:34;98592.22;;;25.63;78.18
1616;BME280;801;47.982;7.810;2022-07-29T12:44:01;98583.78;;;25.52;75.49
1616;BME280;801;47.982;7.810;2022-07-29T12:46:29;98591.34;;;25.39;75.20
1616;BME280;801;47.982;7.810;2022-07-29T12:48:56;98591.34;;;25.39;72.53
1616;BME280;801;47.982;7.810;2022-07-29T12:51:28;98601.47;;;25.35;69.85
1616;BME280;801;47.982;7.810;2022-07-29T12:54:04;98584.53;;;25.33;69.30
1616;BME280;801;47.982;7.810;2022-07-29T12:56:32;98590.03;;;25.33;73.29
1616;BME280;801;47.982;7.810;2022-07-29T12:58:58;98580.78;;;25.41;75.24
1616;BME280;801;47.982;7.810;2022-07-29T13:01:25;98591.38;;;25.23;77.66
1616;BME280;801;47.982;7.810;2022-07-29T13:03:56;98584.81;;;25.12;79.82
1616;BME280;801;47.982;7.810;2022-07-29T13:06:32;98583.78;;;25.36;77.55
1616;BME280;801;47.982;7.810;2022-07-29T13:09:05;98583.00;;;25.36;78.38
1616;BME280;801;47.982;7.810;2022-07-29T13:11:33;98577.78;;;25.15;78.86
1616;BME280;801;47.982;7.810;2022-07-29T13:14:00;98589.06;;;25.25;78.00
1616;BME280;801;47.982;7.810;2022-07-29T13:16:27;98584.56;;;25.01;79.84
1616;BME280;801;47.982;7.810;2022-07-29T13:19:09;98583.84;;;25.04;79.72
1616;BME280;801;47.982;7.810;2022-07-29T13:21:37;98582.06;;;25.12;76.31
1616;BME280;801;47.982;7.810;2022-07-29T13:24:05;98582.56;;;25.34;74.30
1616;BME280;801;47.982;7.810;2022-07-29T13:26:32;98576.88;;;25.42;73.13
1616;BME280;801;47.982;7.810;2022-07-29T13:28:58;98573.78;;;25.63;70.24
1616;BME280;801;47.982;7.810;2022-07-29T13:31:25;98579.72;;;25.65;71.09
1616;BME280;801;47.982;7.810;2022-07-29T13:33:51;98578.19;;;25.48;72.77
1616;BME280;801;47.982;7.810;2022-07-29T13:36:19;98579.00;;;25.68;73.15
1616;BME280;801;47.982;7.810;2022-07-29T13:38:46;98583.13;;;25.59;70.62
1616;BME280;801;47.982;7.810;2022-07-29T13:41:12;98582.09;;;25.67;68.16
1616;BME280;801;47.982;7.810;2022-07-29T13:43:39;98579.34;;;25.67;68.96
1616;BME280;801;47.982;7.810;2022-07-29T13:46:05;98586.84;;;25.15;72.36
1616;BME280;801;47.982;7.810;2022-07-29T13:48:32;98583.56;;;25.10;73.54
1616;BME280;801;47.982;7.810;2022-07-29T13:50:58;98577.97;;;25.22;74.46
1616;BME280;801;47.982;7.810;2022-07-29T13:53:26;98579.34;;;25.47;76.14
1616;BME280;801;47.982;7.810;2022-07-29T13:55:54;98588.25;;;25.25;79.72
1616;BME280;801;47.982;7.810;2022-07-29T13:58:20;98589.31;;;25.04;81.55
1616;BME280;801;47.982;7.810;2022-07-29T14:00:46;98592.44;;;24.71;83.31
1616;BME280;801;47.982;7.810;2022-07-29T14:03:13;98577.47;;;24.69;84.41
1616;BME280;801;47.982;7.810;2022-07-29T14:05:40;98582.97;;;24.69;85.31
1616;BME280;801;47.982;7.810;2022-07-29T14:08:06;98586.72;;;24.60;85.81
1616;BME280;801;47.982;7.810;2022-07-29T14:10:34;98582.53;;;24.67;86.45
1616;BME280;801;47.982;7.810;2022-07-29T14:13:01;98587.78;;;24.72;84.68
1616;BME280;801;47.982;7.810;2022-07-29T14:15:27;98580.31;;;24.56;82.57
1616;BME280;801;47.982;7.810;2022-07-29T14:17:54;98585.09;;;24.59;73.66
1616;BME280;801;47.982;7.810;2022-07-29T14:20:20;98586.88;;;24.68;72.32
1616;BME280;801;47.982;7.810;2022-07-29T14:22:46;98587.41;;;24.73;69.85
1616;BME280;801;47.982;7.810;2022-07-29T14:25:13;98582.91;;;24.65;69.28
1616;BME280;801;47.982;7.810;2022-07-29T14:27:41;98586.72;;;24.60;70.65
1616;BME280;801;47.982;7.810;2022-07-29T14:30:09;98585.91;;;24.92;69.64
1616;BME280;801;47.982;7.810;2022-07-29T14:32:35;98583.34;;;24.83;70.18
1616;BME280;801;47.982;7.810;2022-07-29T14:35:02;98589.66;;;25.35;67.91
1616;BME280;801;47.982;7.810;2022-07-29T14:37:29;98589.63;;;25.51;64.98
1616;BME280;801;47.982;7.810;2022-07-29T14:39:55;98592.16;;;25.24;65.29
1616;BME280;801;47.982;7.810;2022-07-29T14:42:24;98596.19;;;24.95;63.25
1616;BME280;801;47.982;7.810;2022-07-29T14:44:52;98599.78;;;25.15;61.35
1616;BME280;801;47.982;7.810;2022-07-29T14:47:19;98595.66;;;25.21;61.82
1616;BME280;801;47.982;7.810;2022-07-29T14:49:46;98608.84;;;25.31;61.74
1616;BME280;801;47.982;7.810;2022-07-29T14:52:13;98598.63;;;25.16;62.58
1616;BME280;801;47.982;7.810;2022-07-29T14:54:40;98594.97;;;25.43;60.65
1616;BME280;801;47.982;7.810;2022-07-29T14:57:06;98596.28;;;25.50;58.47
1616;BME280;801;47.982;7.810;2022-07-29T14:59:34;98602.38;;;25.59;56.43
1616;BME280;801;47.982;7.810;2022-07-29T15:02:02;98602.25;;;25.36;53.57
1616;BME280;801;47.982;7.810;2022-07-29T15:04:28;98603.78;;;25.17;53.54
1616;BME280;801;47.982;7.810;2022-07-29T15:06:55;98613.78;;;25.41;53.67
1616;BME280;801;47.982;7.810;2022-07-29T15:09:21;98601.13;;;25.56;52.03
1616;BME280;801;47.982;7.810;2022-07-29T15:11:48;98603.53;;;25.58;52.30
1616;BME280;801;47.982;7.810;2022-07-29T15:14:14;98600.00;;;25.57;52.12
1616;BME280;801;47.982;7.810;2022-07-29T15:16:41;98605.78;;;25.52;52.18
1616;BME280;801;47.982;7.810;2022-07-29T15:19:09;98594.88;;;25.75;51.66
1616;BME280;801;47.982;7.810;2022-07-29T15:21:36;98594.19;;;25.62;50.93
1616;BME280;801;47.982;7.810;2022-07-29T15:24:03;98591.97;;;25.68;51.02
1616;BME280;801;47.982;7.810;2022-07-29T15:26:32;98595.56;;;25.53;50.67
1616;BME280;801;47.982;7.810;2022-07-29T15:28:59;98598.13;;;25.61;49.32
1616;BME280;801;47.982;7.810;2022-07-29T15:31:26;98602.28;;;25.91;49.83
1616;BME280;801;47.982;7.810;2022-07-29T15:33:52;98596.75;;;26.29;47.80
1616;BME280;801;47.982;7.810;2022-07-29T15:36:20;98601.69;;;26.20;47.54
1616;BME280;801;47.982;7.810;2022-07-29T15:38:47;98588.44;;;26.49;47.45
1616;BME280;801;47.982;7.810;2022-07-29T15:41:15;98603.13;;;26.34;46.45
1616;BME280;801;47.982;7.810;2022-07-29T15:43:44;98600.09;;;26.19;46.03
1616;BME280;801;47.982;7.810;2022-07-29T15:46:12;98595.50;;;26.69;46.18
1616;BME280;801;47.982;7.810;2022-07-29T15:48:57;98594.69;;;26.92;45.62
1616;BME280;801;47.982;7.810;2022-07-29T15:51:25;98599.63;;;27.06;44.70
1616;BME280;801;47.982;7.810;2022-07-29T15:53:51;98596.31;;;27.20;44.37
1616;BME280;801;47.982;7.810;2022-07-29T15:56:18;98590.13;;;27.00;44.60
1616;BME280;801;47.982;7.810;2022-07-29T15:58:45;98598.53;;;26.84;44.84
1616;BME280;801;47.982;7.810;2022-07-29T16:01:11;98593.69;;;26.77;43.88
1616;BME280;801;47.982;7.810;2022-07-29T16:03:38;98579.78;;;27.20;43.44
1616;BME280;801;47.982;7.810;2022-07-29T16:06:04;98580.66;;;27.54;42.64